Ayer, Massachusetts
Current Conditions -  °F | °C
As of 7:52 AM on Friday 19 Dec 2014 (Local Time) from KFIT Reporting Station
Overcast Overcast  
Wind Chill: 25°   Ceiling: 2900
Heat Index: 33°   Visibility: 10mi
Dew Point: 22°   Wind: 9mph
Humidity: 64%   Direction: 320°NW
Pressure: 29.93"   Gusts: NA
Location:  42.56°N, 71.58°W
Report Text: KFIT 191252Z AUTO 32008KT 10SM BKN029 BKN041 OVC049 01/M06 A2993 RMK AO2 SLP140 T00061056
Loading
Personal Weather Stations






























Interactive Weather Map New forecast layout! Learn more

10-Day Weather Forecast

Advertisements
Track Severe Weather on mobile